NCAR-RAP Real-Time Weather Data

Output produced by METARs form (08 May 2021  00:35 UTC)
found at http://weather.rap.ucar.edu/surface/
 
KTVC 072353Z 01006KT 10SM FEW025 SCT090 07/01 A3001 RMK AO2 SLP165 60000 T00670006 10067 20039 53005
KTVC 072253Z 02006KT 10SM SCT020 SCT090 06/01 A3000 RMK AO2 SLP164 T00610011
KTVC 072153Z 02009KT 10SM FEW024 BKN031 BKN090 06/02 A3000 RMK AO2 SLP164 T00610017
KTVC 072129Z 01010KT 10SM SCT009 BKN075 OVC090 05/02 A3000 RMK AO2 T00500017
KTVC 072053Z 02009KT 10SM BKN009 BKN013 OVC037 05/03 A2999 RMK AO2 RAE39DZB39E51 SLP163 P0000 60000 T00500028 51015
KTVC 071953Z 35012G19KT 3SM -RA BR BKN009 OVC017 04/03 A2998 RMK AO2 DZE47RAB47 CIG 006V013 SLP159 P0000 T00390028
KTVC 071853Z 34013KT 5SM -DZ BR OVC008 04/02 A2996 RMK AO2 DZB30 CIG 006V010 SLP153 P0000 T00390022
KTVC 071753Z 36008KT 10SM OVC008 04/02 A2995 RMK AO2 DZE21 SLP147 P0000 60004 T00440022 10056 20033 53014
KTVC 071653Z 01009KT 10SM -DZ OVC008 04/02 A2993 RMK AO2 DZB50 SLP143 P0000 T00390022
KTVC 071553Z 02008KT 10SM OVC007 04/03 A2992 RMK AO2 CIG 005V010 SLP137 T00440028
KTVC 071508Z 33005KT 9SM BKN007 OVC016 05/04 A2991 RMK AO2 CIG 005V009 T00500039
KTVC 071453Z 00000KT 10SM SCT007 OVC016 06/04 A2991 RMK AO2 RAE52 SLP133 P0001 60004 T00560039 56002
KTVC 071353Z 00000KT 10SM -RA FEW007 BKN020 OVC039 05/03 A2991 RMK AO2 SLP133 P0000 T00500033
KTVC 071253Z 00000KT 10SM -RA SCT035 BKN044 OVC060 04/03 A2991 RMK AO2 SLP134 P0003 T00440033
KTVC 071204Z 09005KT 5SM -RA BR OVC028 03/02 A2992 RMK AO2 P0002 T00330022
KTVC 071153Z 09004KT 8SM -RA OVC030 03/02 A2993 RMK AO2 RAB29 SLP140 P0002 60002 70002 I6001 T00330022 10033 21006 55000
KTVC 071053Z 00000KT 10SM BKN070 OVC090 02/01 A2992 RMK AO2 SLP136 T00220011
KTVC 070953Z AUTO 00000KT 10SM OVC100 01/00 A2993 RMK AO2 SLP139 I1001 T00110000
KTVC 070853Z AUTO 00000KT 10SM BKN095 01/M01 A2993 RMK AO2 SLP140 I1000 I3000 T00061011 56017